sensor_id;sensor_type;location;lat;lon;timestamp;P1;durP1;ratioP1;P2;durP2;ratioP2
31482;SDS011;18103;52.246;8.052;2023-04-06T00:00:05;6.97;;;2.60;;
31482;SDS011;18103;52.246;8.052;2023-04-06T00:02:33;4.53;;;2.63;;
31482;SDS011;18103;52.246;8.052;2023-04-06T00:05:02;2.67;;;2.27;;
31482;SDS011;18103;52.246;8.052;2023-04-06T00:07:30;6.00;;;3.07;;
31482;SDS011;18103;52.246;8.052;2023-04-06T00:09:58;6.23;;;2.60;;
31482;SDS011;18103;52.246;8.052;2023-04-06T00:12:23;6.13;;;3.23;;
31482;SDS011;18103;52.246;8.052;2023-04-06T00:14:49;7.03;;;3.70;;
31482;SDS011;18103;52.246;8.052;2023-04-06T00:17:15;6.13;;;2.97;;
31482;SDS011;18103;52.246;8.052;2023-04-06T00:19:47;7.43;;;3.23;;
31482;SDS011;18103;52.246;8.052;2023-04-06T00:22:15;3.70;;;2.60;;
31482;SDS011;18103;52.246;8.052;2023-04-06T00:24:41;5.10;;;3.37;;
31482;SDS011;18103;52.246;8.052;2023-04-06T00:27:06;5.37;;;2.60;;
31482;SDS011;18103;52.246;8.052;2023-04-06T00:29:31;8.43;;;3.70;;
31482;SDS011;18103;52.246;8.052;2023-04-06T00:32:02;4.53;;;2.87;;
31482;SDS011;18103;52.246;8.052;2023-04-06T00:34:27;5.67;;;2.03;;
31482;SDS011;18103;52.246;8.052;2023-04-06T00:36:53;6.50;;;3.43;;
31482;SDS011;18103;52.246;8.052;2023-04-06T00:39:21;4.73;;;2.90;;
31482;SDS011;18103;52.246;8.052;2023-04-06T00:41:47;7.23;;;3.10;;
31482;SDS011;18103;52.246;8.052;2023-04-06T00:44:18;7.17;;;2.93;;
31482;SDS011;18103;52.246;8.052;2023-04-06T00:46:47;2.87;;;1.77;;
31482;SDS011;18103;52.246;8.052;2023-04-06T00:49:15;8.23;;;3.83;;
31482;SDS011;18103;52.246;8.052;2023-04-06T00:51:40;7.23;;;3.53;;
31482;SDS011;18103;52.246;8.052;2023-04-06T00:54:06;6.13;;;3.43;;
31482;SDS011;18103;52.246;8.052;2023-04-06T00:56:31;7.70;;;2.90;;
31482;SDS011;18103;52.246;8.052;2023-04-06T00:58:57;10.33;;;4.17;;
31482;SDS011;18103;52.246;8.052;2023-04-06T01:01:23;7.80;;;3.40;;
31482;SDS011;18103;52.246;8.052;2023-04-06T01:03:51;7.27;;;3.73;;
31482;SDS011;18103;52.246;8.052;2023-04-06T01:06:19;11.97;;;3.63;;
31482;SDS011;18103;52.246;8.052;2023-04-06T01:08:49;4.93;;;3.53;;
31482;SDS011;18103;52.246;8.052;2023-04-06T01:11:14;5.13;;;3.10;;
31482;SDS011;18103;52.246;8.052;2023-04-06T01:13:40;7.17;;;3.47;;
31482;SDS011;18103;52.246;8.052;2023-04-06T01:16:10;5.83;;;3.40;;
31482;SDS011;18103;52.246;8.052;2023-04-06T01:18:35;5.63;;;3.23;;
31482;SDS011;18103;52.246;8.052;2023-04-06T01:21:02;6.20;;;3.00;;
31482;SDS011;18103;52.246;8.052;2023-04-06T01:23:30;7.97;;;4.00;;
31482;SDS011;18103;52.246;8.052;2023-04-06T01:25:56;5.53;;;3.07;;
31482;SDS011;18103;52.246;8.052;2023-04-06T01:28:21;6.73;;;3.50;;
31482;SDS011;18103;52.246;8.052;2023-04-06T01:30:46;8.03;;;3.20;;
31482;SDS011;18103;52.246;8.052;2023-04-06T01:33:12;11.10;;;3.60;;
31482;SDS011;18103;52.246;8.052;2023-04-06T01:35:37;7.23;;;3.87;;
31482;SDS011;18103;52.246;8.052;2023-04-06T01:38:03;7.83;;;3.60;;
31482;SDS011;18103;52.246;8.052;2023-04-06T01:40:28;10.33;;;3.10;;
31482;SDS011;18103;52.246;8.052;2023-04-06T01:42:58;6.67;;;3.63;;
31482;SDS011;18103;52.246;8.052;2023-04-06T01:45:23;5.17;;;3.03;;
31482;SDS011;18103;52.246;8.052;2023-04-06T01:47:49;6.33;;;3.50;;
31482;SDS011;18103;52.246;8.052;2023-04-06T01:50:14;4.50;;;3.33;;
31482;SDS011;18103;52.246;8.052;2023-04-06T01:52:42;7.77;;;3.80;;
31482;SDS011;18103;52.246;8.052;2023-04-06T01:55:12;10.37;;;3.80;;
31482;SDS011;18103;52.246;8.052;2023-04-06T01:57:38;6.13;;;3.53;;
31482;SDS011;18103;52.246;8.052;2023-04-06T02:00:06;6.27;;;3.27;;
31482;SDS011;18103;52.246;8.052;2023-04-06T02:02:31;4.47;;;3.03;;
31482;SDS011;18103;52.246;8.052;2023-04-06T02:05:02;6.67;;;3.63;;
31482;SDS011;18103;52.246;8.052;2023-04-06T02:07:27;14.47;;;3.73;;
31482;SDS011;18103;52.246;8.052;2023-04-06T02:09:55;5.67;;;3.27;;
31482;SDS011;18103;52.246;8.052;2023-04-06T02:12:21;8.13;;;3.90;;
31482;SDS011;18103;52.246;8.052;2023-04-06T02:14:49;9.97;;;4.47;;
31482;SDS011;18103;52.246;8.052;2023-04-06T02:17:15;7.00;;;3.77;;
31482;SDS011;18103;52.246;8.052;2023-04-06T02:19:40;7.00;;;3.07;;
31482;SDS011;18103;52.246;8.052;2023-04-06T02:22:09;8.20;;;3.27;;
31482;SDS011;18103;52.246;8.052;2023-04-06T02:24:39;5.10;;;3.30;;
31482;SDS011;18103;52.246;8.052;2023-04-06T02:27:05;5.73;;;3.47;;
31482;SDS011;18103;52.246;8.052;2023-04-06T02:29:32;8.37;;;3.80;;
31482;SDS011;18103;52.246;8.052;2023-04-06T02:31:58;9.80;;;3.37;;
31482;SDS011;18103;52.246;8.052;2023-04-06T02:34:23;5.17;;;3.33;;
31482;SDS011;18103;52.246;8.052;2023-04-06T02:36:49;6.53;;;3.80;;
31482;SDS011;18103;52.246;8.052;2023-04-06T02:39:14;7.10;;;3.10;;
31482;SDS011;18103;52.246;8.052;2023-04-06T02:41:40;13.00;;;4.33;;
31482;SDS011;18103;52.246;8.052;2023-04-06T02:44:08;6.17;;;3.50;;
31482;SDS011;18103;52.246;8.052;2023-04-06T02:46:34;6.63;;;3.73;;
31482;SDS011;18103;52.246;8.052;2023-04-06T02:48:59;9.13;;;4.03;;
31482;SDS011;18103;52.246;8.052;2023-04-06T02:51:29;6.27;;;3.53;;
31482;SDS011;18103;52.246;8.052;2023-04-06T02:53:55;5.03;;;3.37;;
31482;SDS011;18103;52.246;8.052;2023-04-06T02:56:20;7.40;;;4.30;;
31482;SDS011;18103;52.246;8.052;2023-04-06T02:58:46;9.07;;;3.70;;
31482;SDS011;18103;52.246;8.052;2023-04-06T03:01:12;5.93;;;3.67;;
31482;SDS011;18103;52.246;8.052;2023-04-06T03:03:37;6.70;;;3.77;;
31482;SDS011;18103;52.246;8.052;2023-04-06T03:06:03;6.80;;;4.40;;
31482;SDS011;18103;52.246;8.052;2023-04-06T03:08:28;6.57;;;4.30;;
31482;SDS011;18103;52.246;8.052;2023-04-06T03:10:54;4.80;;;3.70;;
31482;SDS011;18103;52.246;8.052;2023-04-06T03:13:20;7.13;;;3.40;;
31482;SDS011;18103;52.246;8.052;2023-04-06T03:15:46;8.63;;;3.27;;
31482;SDS011;18103;52.246;8.052;2023-04-06T03:18:11;6.87;;;4.00;;
31482;SDS011;18103;52.246;8.052;2023-04-06T03:20:39;4.80;;;3.53;;
31482;SDS011;18103;52.246;8.052;2023-04-06T03:23:05;7.40;;;3.77;;
31482;SDS011;18103;52.246;8.052;2023-04-06T03:25:32;9.37;;;4.30;;
31482;SDS011;18103;52.246;8.052;2023-04-06T03:27:58;15.73;;;3.90;;
31482;SDS011;18103;52.246;8.052;2023-04-06T03:30:23;9.33;;;4.40;;
31482;SDS011;18103;52.246;8.052;2023-04-06T03:32:48;6.17;;;3.50;;
31482;SDS011;18103;52.246;8.052;2023-04-06T03:35:16;3.70;;;3.27;;
31482;SDS011;18103;52.246;8.052;2023-04-06T03:37:42;6.10;;;3.70;;
31482;SDS011;18103;52.246;8.052;2023-04-06T03:40:07;8.97;;;3.90;;
31482;SDS011;18103;52.246;8.052;2023-04-06T03:42:33;7.60;;;4.80;;
31482;SDS011;18103;52.246;8.052;2023-04-06T03:44:58;6.33;;;3.67;;
31482;SDS011;18103;52.246;8.052;2023-04-06T03:47:24;7.53;;;3.70;;
31482;SDS011;18103;52.246;8.052;2023-04-06T03:49:50;5.97;;;3.67;;
31482;SDS011;18103;52.246;8.052;2023-04-06T03:52:16;7.77;;;3.87;;
31482;SDS011;18103;52.246;8.052;2023-04-06T03:54:41;13.53;;;4.23;;
31482;SDS011;18103;52.246;8.052;2023-04-06T03:57:09;7.77;;;4.20;;
31482;SDS011;18103;52.246;8.052;2023-04-06T03:59:37;12.10;;;3.40;;
31482;SDS011;18103;52.246;8.052;2023-04-06T04:02:02;9.57;;;3.73;;
31482;SDS011;18103;52.246;8.052;2023-04-06T04:04:28;8.20;;;3.90;;
31482;SDS011;18103;52.246;8.052;2023-04-06T04:06:56;6.77;;;3.60;;
31482;SDS011;18103;52.246;8.052;2023-04-06T04:09:26;6.60;;;3.37;;
31482;SDS011;18103;52.246;8.052;2023-04-06T04:11:51;6.70;;;4.33;;
31482;SDS011;18103;52.246;8.052;2023-04-06T04:14:19;7.20;;;4.30;;
31482;SDS011;18103;52.246;8.052;2023-04-06T04:16:45;6.60;;;4.00;;
31482;SDS011;18103;52.246;8.052;2023-04-06T04:19:12;5.73;;;3.50;;
31482;SDS011;18103;52.246;8.052;2023-04-06T04:21:44;9.27;;;4.20;;
31482;SDS011;18103;52.246;8.052;2023-04-06T04:24:11;6.35;;;3.42;;
31482;SDS011;18103;52.246;8.052;2023-04-06T04:26:39;11.70;;;4.80;;
31482;SDS011;18103;52.246;8.052;2023-04-06T04:29:05;7.95;;;3.85;;
31482;SDS011;18103;52.246;8.052;2023-04-06T04:31:31;8.40;;;4.57;;
31482;SDS011;18103;52.246;8.052;2023-04-06T04:33:57;8.67;;;4.07;;
31482;SDS011;18103;52.246;8.052;2023-04-06T04:36:23;6.27;;;3.97;;
31482;SDS011;18103;52.246;8.052;2023-04-06T04:38:50;6.00;;;4.28;;
31482;SDS011;18103;52.246;8.052;2023-04-06T04:41:16;9.73;;;4.23;;
31482;SDS011;18103;52.246;8.052;2023-04-06T04:43:41;6.87;;;4.27;;
31482;SDS011;18103;52.246;8.052;2023-04-06T04:46:09;11.02;;;4.30;;
31482;SDS011;18103;52.246;8.052;2023-04-06T04:48:35;7.97;;;4.63;;
31482;SDS011;18103;52.246;8.052;2023-04-06T04:51:03;7.72;;;3.95;;
31482;SDS011;18103;52.246;8.052;2023-04-06T04:53:30;7.40;;;4.23;;
31482;SDS011;18103;52.246;8.052;2023-04-06T04:55:57;5.20;;;3.60;;
31482;SDS011;18103;52.246;8.052;2023-04-06T04:58:23;5.67;;;3.80;;
31482;SDS011;18103;52.246;8.052;2023-04-06T05:00:48;7.47;;;4.27;;
31482;SDS011;18103;52.246;8.052;2023-04-06T05:03:16;8.07;;;4.00;;
31482;SDS011;18103;52.246;8.052;2023-04-06T05:05:48;11.38;;;4.45;;
31482;SDS011;18103;52.246;8.052;2023-04-06T05:08:14;6.23;;;4.00;;
31482;SDS011;18103;52.246;8.052;2023-04-06T05:10:40;7.95;;;4.40;;
31482;SDS011;18103;52.246;8.052;2023-04-06T05:13:06;6.97;;;3.97;;
31482;SDS011;18103;52.246;8.052;2023-04-06T05:15:36;10.25;;;4.82;;
31482;SDS011;18103;52.246;8.052;2023-04-06T05:18:05;7.65;;;4.20;;
31482;SDS011;18103;52.246;8.052;2023-04-06T05:20:32;14.57;;;3.88;;
31482;SDS011;18103;52.246;8.052;2023-04-06T05:23:00;9.73;;;4.93;;
31482;SDS011;18103;52.246;8.052;2023-04-06T05:25:25;8.70;;;4.10;;
31482;SDS011;18103;52.246;8.052;2023-04-06T05:27:51;7.33;;;4.27;;
31482;SDS011;18103;52.246;8.052;2023-04-06T05:30:17;8.30;;;4.53;;
31482;SDS011;18103;52.246;8.052;2023-04-06T05:32:42;10.53;;;5.07;;
31482;SDS011;18103;52.246;8.052;2023-04-06T05:35:09;7.90;;;4.43;;
31482;SDS011;18103;52.246;8.052;2023-04-06T05:37:35;9.90;;;4.30;;
31482;SDS011;18103;52.246;8.052;2023-04-06T05:40:03;14.77;;;4.57;;
31482;SDS011;18103;52.246;8.052;2023-04-06T05:42:38;7.13;;;4.53;;
31482;SDS011;18103;52.246;8.052;2023-04-06T05:45:07;8.80;;;4.93;;
31482;SDS011;18103;52.246;8.052;2023-04-06T05:47:41;6.20;;;4.17;;
31482;SDS011;18103;52.246;8.052;2023-04-06T05:50:07;9.48;;;4.82;;
31482;SDS011;18103;52.246;8.052;2023-04-06T05:52:33;7.17;;;4.03;;
31482;SDS011;18103;52.246;8.052;2023-04-06T05:54:58;7.63;;;4.53;;
31482;SDS011;18103;52.246;8.052;2023-04-06T05:57:26;10.20;;;4.37;;
31482;SDS011;18103;52.246;8.052;2023-04-06T05:59:51;10.13;;;3.97;;
31482;SDS011;18103;52.246;8.052;2023-04-06T06:02:17;8.60;;;3.93;;
31482;SDS011;18103;52.246;8.052;2023-04-06T06:04:45;8.67;;;4.40;;
31482;SDS011;18103;52.246;8.052;2023-04-06T06:07:14;10.07;;;4.70;;
31482;SDS011;18103;52.246;8.052;2023-04-06T06:09:40;10.37;;;4.43;;
31482;SDS011;18103;52.246;8.052;2023-04-06T06:12:10;7.13;;;3.93;;
31482;SDS011;18103;52.246;8.052;2023-04-06T06:14:35;11.77;;;5.20;;
31482;SDS011;18103;52.246;8.052;2023-04-06T06:17:01;8.47;;;4.87;;
31482;SDS011;18103;52.246;8.052;2023-04-06T06:19:26;8.60;;;4.70;;
31482;SDS011;18103;52.246;8.052;2023-04-06T06:21:54;5.30;;;3.67;;
31482;SDS011;18103;52.246;8.052;2023-04-06T06:24:19;11.27;;;5.13;;
31482;SDS011;18103;52.246;8.052;2023-04-06T06:26:45;9.13;;;4.77;;
31482;SDS011;18103;52.246;8.052;2023-04-06T06:29:10;15.50;;;5.43;;
31482;SDS011;18103;52.246;8.052;2023-04-06T06:31:36;8.57;;;4.63;;
31482;SDS011;18103;52.246;8.052;2023-04-06T06:34:03;8.40;;;4.73;;
31482;SDS011;18103;52.246;8.052;2023-04-06T06:36:29;8.17;;;4.57;;
31482;SDS011;18103;52.246;8.052;2023-04-06T06:38:55;8.40;;;4.27;;
31482;SDS011;18103;52.246;8.052;2023-04-06T06:41:21;9.97;;;4.33;;
31482;SDS011;18103;52.246;8.052;2023-04-06T06:43:47;10.07;;;4.57;;
31482;SDS011;18103;52.246;8.052;2023-04-06T06:46:14;11.63;;;3.87;;
31482;SDS011;18103;52.246;8.052;2023-04-06T06:48:40;8.47;;;4.33;;
31482;SDS011;18103;52.246;8.052;2023-04-06T06:51:08;11.13;;;5.07;;
31482;SDS011;18103;52.246;8.052;2023-04-06T06:53:34;5.93;;;3.03;;
31482;SDS011;18103;52.246;8.052;2023-04-06T06:56:00;7.10;;;3.90;;
31482;SDS011;18103;52.246;8.052;2023-04-06T06:58:30;8.17;;;4.53;;
31482;SDS011;18103;52.246;8.052;2023-04-06T07:00:58;8.27;;;4.33;;
31482;SDS011;18103;52.246;8.052;2023-04-06T07:03:27;7.70;;;4.30;;
31482;SDS011;18103;52.246;8.052;2023-04-06T07:05:55;8.73;;;4.70;;
31482;SDS011;18103;52.246;8.052;2023-04-06T07:08:24;9.03;;;4.73;;
31482;SDS011;18103;52.246;8.052;2023-04-06T07:10:51;11.47;;;4.53;;
31482;SDS011;18103;52.246;8.052;2023-04-06T07:13:23;8.90;;;4.37;;
31482;SDS011;18103;52.246;8.052;2023-04-06T07:15:49;10.40;;;5.13;;
31482;SDS011;18103;52.246;8.052;2023-04-06T07:18:19;9.00;;;4.47;;
31482;SDS011;18103;52.246;8.052;2023-04-06T07:20:48;8.83;;;4.67;;
31482;SDS011;18103;52.246;8.052;2023-04-06T07:23:20;7.67;;;4.90;;
31482;SDS011;18103;52.246;8.052;2023-04-06T07:25:51;8.80;;;3.80;;
31482;SDS011;18103;52.246;8.052;2023-04-06T07:28:18;9.40;;;5.03;;
31482;SDS011;18103;52.246;8.052;2023-04-06T07:30:47;8.33;;;4.10;;
31482;SDS011;18103;52.246;8.052;2023-04-06T07:33:12;9.97;;;4.47;;
31482;SDS011;18103;52.246;8.052;2023-04-06T07:35:38;9.90;;;4.30;;
31482;SDS011;18103;52.246;8.052;2023-04-06T07:38:04;5.73;;;3.73;;
31482;SDS011;18103;52.246;8.052;2023-04-06T07:40:32;7.63;;;4.47;;
31482;SDS011;18103;52.246;8.052;2023-04-06T07:43:02;8.73;;;4.50;;
31482;SDS011;18103;52.246;8.052;2023-04-06T07:45:28;12.37;;;5.43;;
31482;SDS011;18103;52.246;8.052;2023-04-06T07:47:53;9.30;;;4.70;;
31482;SDS011;18103;52.246;8.052;2023-04-06T07:50:19;9.00;;;4.73;;
31482;SDS011;18103;52.246;8.052;2023-04-06T07:52:46;9.77;;;5.27;;
31482;SDS011;18103;52.246;8.052;2023-04-06T07:55:14;8.23;;;4.20;;
31482;SDS011;18103;52.246;8.052;2023-04-06T07:57:42;8.20;;;4.77;;
31482;SDS011;18103;52.246;8.052;2023-04-06T08:00:08;9.10;;;4.90;;
31482;SDS011;18103;52.246;8.052;2023-04-06T08:02:36;8.83;;;5.13;;
31482;SDS011;18103;52.246;8.052;2023-04-06T08:05:02;9.07;;;4.53;;
31482;SDS011;18103;52.246;8.052;2023-04-06T08:07:27;7.50;;;4.30;;
31482;SDS011;18103;52.246;8.052;2023-04-06T08:09:53;5.87;;;3.30;;
31482;SDS011;18103;52.246;8.052;2023-04-06T08:12:18;11.50;;;3.40;;
31482;SDS011;18103;52.246;8.052;2023-04-06T08:14:43;7.63;;;4.17;;
31482;SDS011;18103;52.246;8.052;2023-04-06T08:17:09;8.10;;;3.83;;
31482;SDS011;18103;52.246;8.052;2023-04-06T08:19:37;2.23;;;1.43;;
31482;SDS011;18103;52.246;8.052;2023-04-06T08:22:04;10.03;;;4.80;;
31482;SDS011;18103;52.246;8.052;2023-04-06T08:24:30;7.97;;;4.50;;
31482;SDS011;18103;52.246;8.052;2023-04-06T08:26:57;5.77;;;3.70;;
31482;SDS011;18103;52.246;8.052;2023-04-06T08:29:22;8.60;;;4.67;;
31482;SDS011;18103;52.246;8.052;2023-04-06T08:31:48;9.80;;;5.47;;
31482;SDS011;18103;52.246;8.052;2023-04-06T08:34:16;11.93;;;4.40;;
31482;SDS011;18103;52.246;8.052;2023-04-06T08:36:42;10.10;;;5.00;;
31482;SDS011;18103;52.246;8.052;2023-04-06T08:39:07;8.00;;;4.60;;
31482;SDS011;18103;52.246;8.052;2023-04-06T08:41:33;14.37;;;5.23;;
31482;SDS011;18103;52.246;8.052;2023-04-06T08:44:00;9.97;;;5.53;;
31482;SDS011;18103;52.246;8.052;2023-04-06T08:46:27;10.33;;;4.97;;
31482;SDS011;18103;52.246;8.052;2023-04-06T08:49:00;8.33;;;4.80;;
31482;SDS011;18103;52.246;8.052;2023-04-06T08:51:31;9.03;;;5.23;;
31482;SDS011;18103;52.246;8.052;2023-04-06T08:53:59;16.97;;;5.20;;
31482;SDS011;18103;52.246;8.052;2023-04-06T08:56:25;11.70;;;5.40;;
31482;SDS011;18103;52.246;8.052;2023-04-06T08:58:52;10.90;;;5.80;;
31482;SDS011;18103;52.246;8.052;2023-04-06T09:01:23;11.07;;;5.17;;
31482;SDS011;18103;52.246;8.052;2023-04-06T09:03:52;11.33;;;5.80;;
31482;SDS011;18103;52.246;8.052;2023-04-06T09:06:21;12.53;;;5.83;;
31482;SDS011;18103;52.246;8.052;2023-04-06T09:08:47;11.67;;;5.90;;
31482;SDS011;18103;52.246;8.052;2023-04-06T09:11:12;8.57;;;5.10;;
31482;SDS011;18103;52.246;8.052;2023-04-06T09:13:44;9.00;;;4.00;;
31482;SDS011;18103;52.246;8.052;2023-04-06T09:16:23;10.47;;;4.90;;
31482;SDS011;18103;52.246;8.052;2023-04-06T09:18:51;9.43;;;5.50;;
31482;SDS011;18103;52.246;8.052;2023-04-06T09:21:17;13.17;;;5.60;;
31482;SDS011;18103;52.246;8.052;2023-04-06T09:23:43;8.47;;;4.80;;
31482;SDS011;18103;52.246;8.052;2023-04-06T09:26:17;10.67;;;4.90;;
31482;SDS011;18103;52.246;8.052;2023-04-06T09:28:53;9.23;;;5.53;;
31482;SDS011;18103;52.246;8.052;2023-04-06T09:31:26;10.63;;;6.23;;
31482;SDS011;18103;52.246;8.052;2023-04-06T09:33:56;12.33;;;6.07;;
31482;SDS011;18103;52.246;8.052;2023-04-06T09:36:31;9.73;;;6.10;;
31482;SDS011;18103;52.246;8.052;2023-04-06T09:39:03;11.70;;;6.40;;
31482;SDS011;18103;52.246;8.052;2023-04-06T09:41:35;14.87;;;6.03;;
31482;SDS011;18103;52.246;8.052;2023-04-06T09:44:05;8.67;;;4.93;;
31482;SDS011;18103;52.246;8.052;2023-04-06T09:46:38;12.57;;;6.80;;
31482;SDS011;18103;52.246;8.052;2023-04-06T09:49:07;10.40;;;5.57;;
31482;SDS011;18103;52.246;8.052;2023-04-06T09:54:03;9.27;;;6.23;;
31482;SDS011;18103;52.246;8.052;2023-04-06T09:56:37;15.07;;;5.60;;
31482;SDS011;18103;52.246;8.052;2023-04-06T09:59:18;9.40;;;5.00;;
31482;SDS011;18103;52.246;8.052;2023-04-06T10:01:51;10.50;;;5.30;;
31482;SDS011;18103;52.246;8.052;2023-04-06T10:04:36;10.60;;;5.30;;
31482;SDS011;18103;52.246;8.052;2023-04-06T10:07:13;13.03;;;6.03;;
31482;SDS011;18103;52.246;8.052;2023-04-06T10:09:40;12.90;;;6.17;;
31482;SDS011;18103;52.246;8.052;2023-04-06T10:12:12;10.20;;;5.70;;
31482;SDS011;18103;52.246;8.052;2023-04-06T10:14:38;13.70;;;6.67;;
31482;SDS011;18103;52.246;8.052;2023-04-06T10:17:06;11.90;;;6.17;;
31482;SDS011;18103;52.246;8.052;2023-04-06T10:19:37;10.37;;;5.33;;
31482;SDS011;18103;52.246;8.052;2023-04-06T10:22:12;10.53;;;6.70;;
31482;SDS011;18103;52.246;8.052;2023-04-06T10:24:50;16.03;;;6.93;;
31482;SDS011;18103;52.246;8.052;2023-04-06T10:27:15;10.30;;;5.73;;
31482;SDS011;18103;52.246;8.052;2023-04-06T10:29:47;10.90;;;6.33;;
31482;SDS011;18103;52.246;8.052;2023-04-06T10:32:16;13.97;;;6.63;;
31482;SDS011;18103;52.246;8.052;2023-04-06T10:34:41;14.57;;;6.77;;
31482;SDS011;18103;52.246;8.052;2023-04-06T10:37:10;12.50;;;6.27;;
31482;SDS011;18103;52.246;8.052;2023-04-06T10:39:52;13.90;;;7.17;;
31482;SDS011;18103;52.246;8.052;2023-04-06T10:42:36;10.97;;;5.80;;
31482;SDS011;18103;52.246;8.052;2023-04-06T10:45:07;12.10;;;6.47;;
31482;SDS011;18103;52.246;8.052;2023-04-06T10:47:43;15.87;;;7.53;;
31482;SDS011;18103;52.246;8.052;2023-04-06T10:50:12;17.93;;;8.73;;
31482;SDS011;18103;52.246;8.052;2023-04-06T10:52:44;16.43;;;8.33;;
31482;SDS011;18103;52.246;8.052;2023-04-06T10:55:10;12.80;;;8.07;;
31482;SDS011;18103;52.246;8.052;2023-04-06T10:57:37;15.17;;;8.10;;
31482;SDS011;18103;52.246;8.052;2023-04-06T11:00:05;14.27;;;7.80;;
31482;SDS011;18103;52.246;8.052;2023-04-06T11:02:36;12.80;;;7.23;;
31482;SDS011;18103;52.246;8.052;2023-04-06T11:05:05;14.63;;;7.10;;
31482;SDS011;18103;52.246;8.052;2023-04-06T11:07:34;18.00;;;7.90;;
31482;SDS011;18103;52.246;8.052;2023-04-06T11:09:59;14.90;;;7.23;;
31482;SDS011;18103;52.246;8.052;2023-04-06T11:12:30;18.50;;;7.80;;
31482;SDS011;18103;52.246;8.052;2023-04-06T11:14:58;18.80;;;6.77;;
31482;SDS011;18103;52.246;8.052;2023-04-06T11:17:33;15.77;;;7.27;;
31482;SDS011;18103;52.246;8.052;2023-04-06T11:20:02;15.40;;;8.13;;
31482;SDS011;18103;52.246;8.052;2023-04-06T11:22:31;15.63;;;7.83;;
31482;SDS011;18103;52.246;8.052;2023-04-06T11:25:06;13.83;;;7.37;;
31482;SDS011;18103;52.246;8.052;2023-04-06T11:27:34;14.43;;;6.27;;
31482;SDS011;18103;52.246;8.052;2023-04-06T11:30:03;16.03;;;7.03;;
31482;SDS011;18103;52.246;8.052;2023-04-06T11:32:38;16.67;;;8.03;;
31482;SDS011;18103;52.246;8.052;2023-04-06T11:35:21;13.73;;;7.70;;
31482;SDS011;18103;52.246;8.052;2023-04-06T11:37:48;13.00;;;5.27;;
31482;SDS011;18103;52.246;8.052;2023-04-06T11:40:20;9.43;;;5.90;;
31482;SDS011;18103;52.246;8.052;2023-04-06T11:42:53;14.37;;;7.37;;
31482;SDS011;18103;52.246;8.052;2023-04-06T11:45:20;14.80;;;7.33;;
31482;SDS011;18103;52.246;8.052;2023-04-06T11:47:54;13.00;;;7.00;;
31482;SDS011;18103;52.246;8.052;2023-04-06T11:50:31;13.97;;;7.27;;
31482;SDS011;18103;52.246;8.052;2023-04-06T11:53:00;11.87;;;7.00;;
31482;SDS011;18103;52.246;8.052;2023-04-06T11:55:27;11.67;;;6.80;;
31482;SDS011;18103;52.246;8.052;2023-04-06T11:57:53;18.60;;;8.23;;
31482;SDS011;18103;52.246;8.052;2023-04-06T12:00:19;12.80;;;6.77;;
31482;SDS011;18103;52.246;8.052;2023-04-06T12:02:46;10.13;;;5.63;;
31482;SDS011;18103;52.246;8.052;2023-04-06T12:05:12;13.57;;;6.97;;
31482;SDS011;18103;52.246;8.052;2023-04-06T12:07:40;11.90;;;7.00;;
31482;SDS011;18103;52.246;8.052;2023-04-06T12:10:08;11.87;;;7.03;;
31482;SDS011;18103;52.246;8.052;2023-04-06T12:12:33;12.40;;;6.70;;
31482;SDS011;18103;52.246;8.052;2023-04-06T12:15:01;13.57;;;6.87;;
31482;SDS011;18103;52.246;8.052;2023-04-06T12:17:27;13.60;;;6.97;;
31482;SDS011;18103;52.246;8.052;2023-04-06T12:19:57;21.93;;;6.37;;
31482;SDS011;18103;52.246;8.052;2023-04-06T12:22:25;10.63;;;6.17;;
31482;SDS011;18103;52.246;8.052;2023-04-06T12:24:52;12.43;;;6.17;;
31482;SDS011;18103;52.246;8.052;2023-04-06T12:27:20;12.97;;;6.40;;
31482;SDS011;18103;52.246;8.052;2023-04-06T12:29:46;16.93;;;7.50;;
31482;SDS011;18103;52.246;8.052;2023-04-06T12:32:12;15.83;;;7.10;;
31482;SDS011;18103;52.246;8.052;2023-04-06T12:34:37;16.80;;;8.03;;
31482;SDS011;18103;52.246;8.052;2023-04-06T12:37:03;17.00;;;7.90;;
31482;SDS011;18103;52.246;8.052;2023-04-06T12:39:31;13.23;;;7.87;;
31482;SDS011;18103;52.246;8.052;2023-04-06T12:42:01;17.90;;;7.30;;
31482;SDS011;18103;52.246;8.052;2023-04-06T12:44:29;18.73;;;8.63;;
31482;SDS011;18103;52.246;8.052;2023-04-06T12:46:55;13.23;;;6.87;;
31482;SDS011;18103;52.246;8.052;2023-04-06T12:49:23;16.80;;;8.87;;
31482;SDS011;18103;52.246;8.052;2023-04-06T12:51:49;17.07;;;7.23;;
31482;SDS011;18103;52.246;8.052;2023-04-06T12:54:17;14.47;;;8.20;;
31482;SDS011;18103;52.246;8.052;2023-04-06T12:56:42;14.17;;;6.80;;
31482;SDS011;18103;52.246;8.052;2023-04-06T12:59:07;17.57;;;7.83;;
31482;SDS011;18103;52.246;8.052;2023-04-06T13:01:33;16.30;;;8.07;;
31482;SDS011;18103;52.246;8.052;2023-04-06T13:03:58;18.30;;;8.73;;
31482;SDS011;18103;52.246;8.052;2023-04-06T13:06:24;14.53;;;7.87;;
31482;SDS011;18103;52.246;8.052;2023-04-06T13:08:53;17.07;;;8.37;;
31482;SDS011;18103;52.246;8.052;2023-04-06T13:11:23;19.07;;;8.57;;
31482;SDS011;18103;52.246;8.052;2023-04-06T13:13:49;15.27;;;6.70;;
31482;SDS011;18103;52.246;8.052;2023-04-06T13:16:20;15.67;;;7.50;;
31482;SDS011;18103;52.246;8.052;2023-04-06T13:18:45;15.40;;;8.13;;
31482;SDS011;18103;52.246;8.052;2023-04-06T13:21:13;15.00;;;8.30;;
31482;SDS011;18103;52.246;8.052;2023-04-06T13:23:41;10.40;;;7.00;;
31482;SDS011;18103;52.246;8.052;2023-04-06T13:26:09;15.87;;;8.27;;
31482;SDS011;18103;52.246;8.052;2023-04-06T13:28:35;14.40;;;7.30;;
31482;SDS011;18103;52.246;8.052;2023-04-06T13:31:02;16.40;;;9.30;;
31482;SDS011;18103;52.246;8.052;2023-04-06T13:33:28;15.40;;;8.17;;
31482;SDS011;18103;52.246;8.052;2023-04-06T13:35:54;17.57;;;8.20;;
31482;SDS011;18103;52.246;8.052;2023-04-06T13:38:22;16.93;;;8.93;;
31482;SDS011;18103;52.246;8.052;2023-04-06T13:40:49;22.83;;;8.30;;
31482;SDS011;18103;52.246;8.052;2023-04-06T13:43:15;13.97;;;6.60;;
31482;SDS011;18103;52.246;8.052;2023-04-06T13:45:40;15.60;;;8.13;;
31482;SDS011;18103;52.246;8.052;2023-04-06T13:48:06;18.80;;;8.23;;
31482;SDS011;18103;52.246;8.052;2023-04-06T13:50:31;15.97;;;8.03;;
31482;SDS011;18103;52.246;8.052;2023-04-06T13:52:57;14.73;;;8.00;;
31482;SDS011;18103;52.246;8.052;2023-04-06T13:55:23;18.43;;;8.73;;
31482;SDS011;18103;52.246;8.052;2023-04-06T13:57:51;17.70;;;8.80;;
31482;SDS011;18103;52.246;8.052;2023-04-06T14:00:17;17.77;;;9.07;;
31482;SDS011;18103;52.246;8.052;2023-04-06T14:02:43;18.87;;;8.23;;
31482;SDS011;18103;52.246;8.052;2023-04-06T14:05:08;17.43;;;8.27;;
31482;SDS011;18103;52.246;8.052;2023-04-06T14:07:37;16.40;;;9.00;;
31482;SDS011;18103;52.246;8.052;2023-04-06T14:10:02;19.27;;;8.60;;
31482;SDS011;18103;52.246;8.052;2023-04-06T14:12:38;16.63;;;9.23;;
31482;SDS011;18103;52.246;8.052;2023-04-06T14:15:04;23.33;;;10.10;;
31482;SDS011;18103;52.246;8.052;2023-04-06T14:17:29;22.23;;;9.37;;
31482;SDS011;18103;52.246;8.052;2023-04-06T14:20:05;16.23;;;8.47;;
31482;SDS011;18103;52.246;8.052;2023-04-06T14:22:31;19.23;;;8.23;;
31482;SDS011;18103;52.246;8.052;2023-04-06T14:25:00;15.07;;;8.57;;
31482;SDS011;18103;52.246;8.052;2023-04-06T14:27:25;12.07;;;6.70;;
31482;SDS011;18103;52.246;8.052;2023-04-06T14:29:53;11.67;;;6.73;;
31482;SDS011;18103;52.246;8.052;2023-04-06T14:32:21;13.30;;;6.63;;
31482;SDS011;18103;52.246;8.052;2023-04-06T14:34:46;20.27;;;6.90;;
31482;SDS011;18103;52.246;8.052;2023-04-06T14:37:14;15.07;;;6.70;;
31482;SDS011;18103;52.246;8.052;2023-04-06T14:39:42;17.80;;;7.90;;
31482;SDS011;18103;52.246;8.052;2023-04-06T14:42:08;14.67;;;7.83;;
31482;SDS011;18103;52.246;8.052;2023-04-06T14:44:35;13.80;;;6.83;;